NPV3605 LIPE-EGNX
Flight info
| Callsign | NPV3605 |
|---|---|
| Flight time | 1h 41m |
| Altitude | 34000 |
| Route | LUPOS DCT OSBUL DCT ABESI DCT UTAVO DCT HOC DCT LUL DCT RLP DCT ROTSI DCT KOTUN DCT NINAL DCT ABNUR DCT DIMAL DCT ALESO T420 HEMEL |
| Aircraft | B77L/H-SDE1E2E3FGHIJ2J3J4J5M1RWXY/LB1D1 |
Departure
| Time | 2026-05-04 17:44 |
|---|---|
| Airport | Bologna Guglielmo Marconi Airport (LIPE) |
Arrival
| Time | 2026-05-04 19:26 |
|---|---|
| Airport | East Midlands Airport (EGNX) |
| Time | Latitude | Longitude | Altitude | Speed | Heading |
|---|---|---|---|---|---|
| 2026-05-04 16:44 | 44.53390 | 11.28295 | 135 ft | 0 kts | 207° |
| 2026-05-04 17:29 | 44.53427 | 11.28320 | 135 ft | 4 kts | 207° |
| 2026-05-04 17:29 | 44.53494 | 11.28316 | 130 ft | 4 kts | 127° |
| 2026-05-04 17:30 | 44.53523 | 11.28239 | 135 ft | 1 kts | 117° |
| 2026-05-04 17:38 | 44.53520 | 11.28248 | 135 ft | 3 kts | 117° |
| 2026-05-04 17:38 | 44.53510 | 11.28288 | 127 ft | 5 kts | 88° |
| 2026-05-04 17:38 | 44.53538 | 11.28300 | 133 ft | 5 kts | 338° |
| 2026-05-04 17:38 | 44.53561 | 11.28263 | 129 ft | 6 kts | 304° |
| 2026-05-04 17:39 | 44.53613 | 11.28126 | 130 ft | 10 kts | 296° |
| 2026-05-04 17:39 | 44.53646 | 11.28034 | 135 ft | 11 kts | 297° |
| 2026-05-04 17:39 | 44.53680 | 11.27940 | 129 ft | 11 kts | 296° |
| 2026-05-04 17:40 | 44.53713 | 11.27847 | 132 ft | 11 kts | 296° |
| 2026-05-04 17:40 | 44.53747 | 11.27753 | 135 ft | 11 kts | 296° |
| 2026-05-04 17:40 | 44.53780 | 11.27659 | 130 ft | 11 kts | 297° |
| 2026-05-04 17:40 | 44.53814 | 11.27566 | 135 ft | 11 kts | 297° |
| 2026-05-04 17:41 | 44.53848 | 11.27473 | 129 ft | 11 kts | 297° |
| 2026-05-04 17:41 | 44.53869 | 11.27415 | 135 ft | 0 kts | 297° |
| 2026-05-04 17:42 | 44.53870 | 11.27413 | 135 ft | 2 kts | 297° |
| 2026-05-04 17:42 | 44.53921 | 11.27321 | 135 ft | 17 kts | 324° |
| 2026-05-04 17:42 | 44.54020 | 11.27229 | 132 ft | 17 kts | 326° |
| 2026-05-04 17:43 | 44.54102 | 11.27255 | 129 ft | 11 kts | 56° |
| 2026-05-04 17:43 | 44.54070 | 11.27406 | 127 ft | 29 kts | 117° |
| 2026-05-04 17:43 | 44.53883 | 11.27926 | 123 ft | 98 kts | 117° |
| 2026-05-04 17:43 | 44.53466 | 11.29079 | 134 ft | 165 kts | 116° |
| 2026-05-04 17:44 | 44.52927 | 11.30612 | 528 ft | 178 kts | 118° |
| 2026-05-04 17:44 | 44.52546 | 11.32276 | 1093 ft | 185 kts | 87° |
| 2026-05-04 17:44 | 44.53097 | 11.33862 | 1756 ft | 189 kts | 36° |
| 2026-05-04 17:44 | 44.54333 | 11.34583 | 2275 ft | 195 kts | 14° |
| 2026-05-04 17:45 | 44.55621 | 11.35230 | 2947 ft | 200 kts | 20° |
| 2026-05-04 17:45 | 44.56904 | 11.35973 | 3537 ft | 206 kts | 22° |
| 2026-05-04 17:45 | 44.58259 | 11.36860 | 3793 ft | 219 kts | 21° |
| 2026-05-04 17:45 | 44.59794 | 11.37129 | 3913 ft | 234 kts | 342° |
| 2026-05-04 17:46 | 44.61188 | 11.35863 | 4138 ft | 254 kts | 307° |
| 2026-05-04 17:46 | 44.61903 | 11.33558 | 4664 ft | 265 kts | 279° |
| 2026-05-04 17:46 | 44.61856 | 11.30962 | 5269 ft | 269 kts | 256° |
| 2026-05-04 17:46 | 44.61335 | 11.28415 | 5950 ft | 273 kts | 252° |
| 2026-05-04 17:47 | 44.60772 | 11.25872 | 6772 ft | 273 kts | 251° |
| 2026-05-04 17:47 | 44.60196 | 11.23325 | 7612 ft | 275 kts | 250° |
| 2026-05-04 17:47 | 44.59610 | 11.20745 | 8331 ft | 279 kts | 250° |
| 2026-05-04 17:47 | 44.59019 | 11.18141 | 9095 ft | 281 kts | 249° |
| 2026-05-04 17:48 | 44.58428 | 11.15523 | 9860 ft | 282 kts | 249° |
| 2026-05-04 17:48 | 44.57972 | 11.12879 | 10389 ft | 290 kts | 265° |
| 2026-05-04 17:48 | 44.58374 | 11.10010 | 10591 ft | 313 kts | 289° |
| 2026-05-04 17:48 | 44.59284 | 11.07116 | 10760 ft | 335 kts | 292° |
| 2026-05-04 17:49 | 44.60274 | 11.04036 | 10976 ft | 358 kts | 292° |
| 2026-05-04 17:49 | 44.61335 | 11.00782 | 11254 ft | 375 kts | 296° |
| 2026-05-04 17:49 | 44.62782 | 10.97686 | 11869 ft | 383 kts | 308° |
| 2026-05-04 17:49 | 44.64644 | 10.94994 | 12660 ft | 386 kts | 318° |
| 2026-05-04 17:50 | 44.66689 | 10.92555 | 13459 ft | 386 kts | 319° |
| 2026-05-04 17:50 | 44.68753 | 10.90082 | 14073 ft | 394 kts | 319° |
| 2026-05-04 17:50 | 44.70847 | 10.87564 | 14720 ft | 397 kts | 318° |
| 2026-05-04 17:50 | 44.72944 | 10.85026 | 15453 ft | 399 kts | 318° |
| 2026-05-04 17:51 | 44.75047 | 10.82472 | 16218 ft | 400 kts | 317° |
| 2026-05-04 17:51 | 44.77163 | 10.79894 | 16868 ft | 404 kts | 317° |
| 2026-05-04 17:51 | 44.79294 | 10.77292 | 17523 ft | 408 kts | 317° |
| 2026-05-04 17:51 | 44.81446 | 10.74658 | 18182 ft | 411 kts | 317° |
| 2026-05-04 17:52 | 44.83612 | 10.72004 | 18805 ft | 414 kts | 317° |
| 2026-05-04 17:52 | 44.85795 | 10.69327 | 19359 ft | 418 kts | 317° |
| 2026-05-04 17:52 | 44.88002 | 10.66622 | 19872 ft | 423 kts | 317° |
| 2026-05-04 17:52 | 44.90229 | 10.63886 | 20403 ft | 427 kts | 317° |
| 2026-05-04 17:53 | 44.92473 | 10.61124 | 20968 ft | 430 kts | 316° |
| 2026-05-04 17:53 | 44.94735 | 10.58337 | 21515 ft | 433 kts | 316° |
| 2026-05-04 17:53 | 44.97015 | 10.55524 | 22079 ft | 437 kts | 316° |
| 2026-05-04 17:53 | 44.99313 | 10.52680 | 22578 ft | 441 kts | 316° |
| 2026-05-04 17:54 | 45.01629 | 10.49812 | 23093 ft | 445 kts | 316° |
| 2026-05-04 17:54 | 45.03970 | 10.46916 | 23631 ft | 449 kts | 316° |
| 2026-05-04 17:54 | 45.06327 | 10.43997 | 24097 ft | 452 kts | 316° |
| 2026-05-04 17:54 | 45.08697 | 10.41061 | 24592 ft | 454 kts | 316° |
| 2026-05-04 17:55 | 45.11077 | 10.38106 | 25073 ft | 457 kts | 316° |
| 2026-05-04 17:55 | 45.13477 | 10.35125 | 25500 ft | 461 kts | 316° |
| 2026-05-04 17:55 | 45.15894 | 10.32117 | 25956 ft | 464 kts | 316° |
| 2026-05-04 17:55 | 45.18320 | 10.29095 | 26451 ft | 466 kts | 316° |
| 2026-05-04 17:56 | 45.20757 | 10.26055 | 26941 ft | 468 kts | 316° |
| 2026-05-04 17:56 | 45.23207 | 10.22994 | 27386 ft | 471 kts | 316° |
| 2026-05-04 17:56 | 45.25677 | 10.19906 | 27837 ft | 474 kts | 316° |
| 2026-05-04 17:56 | 45.28152 | 10.16804 | 28302 ft | 476 kts | 316° |
| 2026-05-04 17:57 | 45.30642 | 10.13683 | 28737 ft | 479 kts | 316° |
| 2026-05-04 17:57 | 45.33148 | 10.10539 | 29169 ft | 482 kts | 316° |
| 2026-05-04 17:57 | 45.35671 | 10.07370 | 29506 ft | 486 kts | 316° |
| 2026-05-04 17:57 | 45.38206 | 10.04179 | 30031 ft | 485 kts | 316° |
| 2026-05-04 17:58 | 45.40724 | 10.01006 | 30628 ft | 482 kts | 316° |
| 2026-05-04 17:58 | 45.43224 | 9.97852 | 31219 ft | 478 kts | 315° |
| 2026-05-04 17:58 | 45.45681 | 9.94752 | 31800 ft | 475 kts | 315° |
| 2026-05-04 17:58 | 45.48170 | 9.91606 | 32349 ft | 473 kts | 315° |
| 2026-05-04 17:59 | 45.50624 | 9.88502 | 32816 ft | 471 kts | 315° |
| 2026-05-04 17:59 | 45.53067 | 9.85404 | 33264 ft | 469 kts | 315° |
| 2026-05-04 17:59 | 45.57933 | 9.79225 | 34028 ft | 469 kts | 314° |
| 2026-05-04 18:00 | 45.60370 | 9.76125 | 34418 ft | 467 kts | 314° |
| 2026-05-04 18:00 | 45.62791 | 9.73041 | 34817 ft | 465 kts | 314° |
| 2026-05-04 18:00 | 45.65199 | 9.69971 | 35183 ft | 463 kts | 314° |
| 2026-05-04 18:00 | 45.67602 | 9.66904 | 35485 ft | 463 kts | 314° |
| 2026-05-04 18:01 | 45.70000 | 9.63841 | 35821 ft | 462 kts | 314° |
| 2026-05-04 18:01 | 45.72395 | 9.60775 | 36225 ft | 461 kts | 314° |
| 2026-05-04 18:01 | 45.74778 | 9.57719 | 36553 ft | 459 kts | 314° |
| 2026-05-04 18:02 | 45.79487 | 9.51673 | 37198 ft | 456 kts | 314° |
| 2026-05-04 18:02 | 45.81879 | 9.48599 | 37406 ft | 456 kts | 314° |
| 2026-05-04 18:02 | 45.84211 | 9.45593 | 37522 ft | 459 kts | 314° |
| 2026-05-04 18:02 | 45.86593 | 9.42519 | 37618 ft | 463 kts | 314° |
| 2026-05-04 18:03 | 45.88990 | 9.39424 | 37795 ft | 464 kts | 314° |
| 2026-05-04 18:03 | 45.91391 | 9.36324 | 37971 ft | 465 kts | 314° |
| 2026-05-04 18:03 | 45.96225 | 9.30065 | 38095 ft | 469 kts | 314° |
| 2026-05-04 18:04 | 46.01052 | 9.23799 | 38080 ft | 466 kts | 314° |
| 2026-05-04 18:05 | 46.07441 | 9.15484 | 38105 ft | 465 kts | 314° |
| 2026-05-04 18:05 | 46.12238 | 9.09221 | 38085 ft | 465 kts | 313° |
| 2026-05-04 18:06 | 46.18666 | 8.98814 | 38070 ft | 463 kts | 306° |
| 2026-05-04 18:06 | 46.22752 | 8.91667 | 37780 ft | 463 kts | 306° |
| 2026-05-04 18:07 | 46.24818 | 8.88076 | 37338 ft | 466 kts | 307° |
| 2026-05-04 18:07 | 46.26902 | 8.84480 | 36963 ft | 467 kts | 307° |
| 2026-05-04 18:07 | 46.28993 | 8.80887 | 36624 ft | 467 kts | 307° |
| 2026-05-04 18:07 | 46.31085 | 8.77299 | 36249 ft | 467 kts | 307° |
| 2026-05-04 18:08 | 46.33177 | 8.73708 | 36086 ft | 466 kts | 306° |
| 2026-05-04 18:08 | 46.35262 | 8.70123 | 36104 ft | 466 kts | 306° |
| 2026-05-04 18:08 | 46.39441 | 8.62904 | 36100 ft | 469 kts | 306° |
| 2026-05-04 18:09 | 46.47848 | 8.48320 | 36098 ft | 475 kts | 306° |
| 2026-05-04 18:10 | 46.52046 | 8.40950 | 36077 ft | 474 kts | 306° |
| 2026-05-04 18:10 | 46.56282 | 8.33602 | 36046 ft | 474 kts | 306° |
| 2026-05-04 18:11 | 46.60487 | 8.26278 | 36023 ft | 470 kts | 306° |
| 2026-05-04 18:11 | 46.64648 | 8.18982 | 36019 ft | 468 kts | 306° |
| 2026-05-04 18:12 | 46.68763 | 8.11735 | 36058 ft | 468 kts | 306° |
| 2026-05-04 18:12 | 46.72920 | 8.04402 | 36007 ft | 469 kts | 305° |
| 2026-05-04 18:13 | 46.77075 | 7.97056 | 36036 ft | 470 kts | 305° |
| 2026-05-04 18:14 | 46.83318 | 7.85980 | 36028 ft | 471 kts | 305° |
| 2026-05-04 18:14 | 46.87472 | 7.78577 | 36004 ft | 471 kts | 305° |
| 2026-05-04 18:15 | 46.95779 | 7.63739 | 36015 ft | 472 kts | 305° |
| 2026-05-04 18:16 | 46.99925 | 7.56295 | 36034 ft | 471 kts | 305° |
| 2026-05-04 18:16 | 47.04068 | 7.48838 | 36015 ft | 472 kts | 305° |
| 2026-05-04 18:17 | 47.10273 | 7.37625 | 36037 ft | 472 kts | 304° |
| 2026-05-04 18:18 | 47.16477 | 7.26379 | 36017 ft | 472 kts | 304° |
| 2026-05-04 18:18 | 47.20610 | 7.18857 | 36029 ft | 473 kts | 304° |
| 2026-05-04 18:19 | 47.26807 | 7.07539 | 36022 ft | 475 kts | 304° |
| 2026-05-04 18:19 | 47.30952 | 6.99944 | 36015 ft | 476 kts | 304° |
| 2026-05-04 18:20 | 47.35109 | 6.92308 | 36011 ft | 478 kts | 304° |
| 2026-05-04 18:20 | 47.39277 | 6.84626 | 36005 ft | 480 kts | 304° |
| 2026-05-04 18:21 | 47.43457 | 6.76903 | 35996 ft | 482 kts | 304° |
| 2026-05-04 18:21 | 47.47642 | 6.69154 | 35998 ft | 483 kts | 304° |
| 2026-05-04 18:22 | 47.51829 | 6.61372 | 35999 ft | 484 kts | 304° |
| 2026-05-04 18:22 | 47.56018 | 6.53565 | 36008 ft | 484 kts | 304° |
| 2026-05-04 18:23 | 47.60202 | 6.45747 | 36004 ft | 484 kts | 304° |
| 2026-05-04 18:23 | 47.64379 | 6.37916 | 35999 ft | 484 kts | 304° |
| 2026-05-04 18:24 | 47.68158 | 6.29734 | 36018 ft | 477 kts | 294° |
| 2026-05-04 18:24 | 47.70775 | 6.20766 | 35989 ft | 471 kts | 283° |
| 2026-05-04 18:25 | 47.72710 | 6.11483 | 36011 ft | 470 kts | 283° |
| 2026-05-04 18:25 | 47.74624 | 6.02186 | 36001 ft | 471 kts | 283° |
| 2026-05-04 18:26 | 47.76550 | 5.92958 | 35998 ft | 471 kts | 283° |
| 2026-05-04 18:26 | 47.78499 | 5.83650 | 36013 ft | 472 kts | 283° |
| 2026-05-04 18:27 | 47.80449 | 5.74317 | 36009 ft | 472 kts | 283° |
| 2026-05-04 18:27 | 47.82388 | 5.64974 | 35999 ft | 473 kts | 283° |
| 2026-05-04 18:28 | 47.84322 | 5.55619 | 35997 ft | 473 kts | 283° |
| 2026-05-04 18:28 | 47.86246 | 5.46249 | 36011 ft | 474 kts | 283° |
| 2026-05-04 18:29 | 47.88172 | 5.36846 | 35992 ft | 475 kts | 283° |
| 2026-05-04 18:29 | 47.90389 | 5.27544 | 35987 ft | 481 kts | 292° |
| 2026-05-04 18:30 | 47.93993 | 5.19091 | 35981 ft | 488 kts | 306° |
| 2026-05-04 18:30 | 47.96252 | 5.15294 | 35979 ft | 489 kts | 308° |
| 2026-05-04 18:31 | 48.00888 | 5.07846 | 35997 ft | 490 kts | 309° |
| 2026-05-04 18:31 | 48.05502 | 5.00358 | 35975 ft | 490 kts | 308° |
| 2026-05-04 18:32 | 48.10077 | 4.92798 | 35960 ft | 490 kts | 308° |
| 2026-05-04 18:32 | 48.14644 | 4.85207 | 35968 ft | 491 kts | 308° |
| 2026-05-04 18:33 | 48.19210 | 4.77599 | 35952 ft | 491 kts | 308° |
| 2026-05-04 18:33 | 48.23774 | 4.69979 | 35978 ft | 491 kts | 308° |
| 2026-05-04 18:34 | 48.28337 | 4.62337 | 35953 ft | 491 kts | 308° |
| 2026-05-04 18:34 | 48.32885 | 4.54678 | 35942 ft | 491 kts | 307° |
| 2026-05-04 18:35 | 48.37418 | 4.47013 | 35939 ft | 490 kts | 307° |
| 2026-05-04 18:35 | 48.41938 | 4.39343 | 35941 ft | 489 kts | 307° |
| 2026-05-04 18:36 | 48.46419 | 4.31725 | 35945 ft | 489 kts | 307° |
| 2026-05-04 18:36 | 48.50927 | 4.24034 | 35948 ft | 489 kts | 307° |
| 2026-05-04 18:37 | 48.55435 | 4.16327 | 35942 ft | 490 kts | 307° |
| 2026-05-04 18:37 | 48.59949 | 4.08582 | 35949 ft | 491 kts | 307° |
| 2026-05-04 18:38 | 48.64459 | 4.00823 | 35937 ft | 491 kts | 307° |
| 2026-05-04 18:38 | 48.68966 | 3.93046 | 35938 ft | 491 kts | 307° |
| 2026-05-04 18:39 | 48.73519 | 3.85345 | 35936 ft | 492 kts | 310° |
| 2026-05-04 18:39 | 48.78401 | 3.78048 | 35936 ft | 493 kts | 312° |
| 2026-05-04 18:40 | 48.83330 | 3.70809 | 35942 ft | 493 kts | 312° |
| 2026-05-04 18:40 | 48.88242 | 3.63533 | 35940 ft | 493 kts | 311° |
| 2026-05-04 18:41 | 48.93129 | 3.56227 | 35938 ft | 492 kts | 311° |
| 2026-05-04 18:41 | 48.97996 | 3.48915 | 35954 ft | 492 kts | 311° |
| 2026-05-04 18:42 | 49.02861 | 3.41580 | 35954 ft | 492 kts | 311° |
| 2026-05-04 18:42 | 49.07723 | 3.34238 | 35936 ft | 492 kts | 311° |
| 2026-05-04 18:43 | 49.12582 | 3.26880 | 35936 ft | 492 kts | 311° |
| 2026-05-04 18:43 | 49.17435 | 3.19506 | 35935 ft | 492 kts | 311° |
| 2026-05-04 18:44 | 49.22273 | 3.12125 | 35931 ft | 491 kts | 311° |
| 2026-05-04 18:44 | 49.27078 | 3.04783 | 35940 ft | 491 kts | 311° |
| 2026-05-04 18:45 | 49.31908 | 2.97380 | 35928 ft | 491 kts | 311° |
| 2026-05-04 18:45 | 49.36738 | 2.89955 | 35937 ft | 491 kts | 311° |
| 2026-05-04 18:46 | 49.41557 | 2.82530 | 35929 ft | 491 kts | 311° |
| 2026-05-04 18:46 | 49.46362 | 2.75095 | 35933 ft | 490 kts | 311° |
| 2026-05-04 18:47 | 49.51152 | 2.67666 | 35957 ft | 489 kts | 312° |
| 2026-05-04 18:47 | 49.55947 | 2.60209 | 35940 ft | 490 kts | 311° |
| 2026-05-04 18:48 | 49.60782 | 2.52803 | 35923 ft | 491 kts | 315° |
| 2026-05-04 18:48 | 49.66168 | 2.46266 | 35940 ft | 493 kts | 320° |
| 2026-05-04 18:49 | 49.71675 | 2.39928 | 35936 ft | 494 kts | 320° |
| 2026-05-04 18:49 | 49.77156 | 2.33540 | 35937 ft | 494 kts | 320° |
| 2026-05-04 18:50 | 49.82624 | 2.27096 | 35933 ft | 494 kts | 320° |
| 2026-05-04 18:50 | 49.88079 | 2.20621 | 35936 ft | 494 kts | 320° |
| 2026-05-04 18:51 | 49.92613 | 2.15228 | 35939 ft | 494 kts | 320° |
| 2026-05-04 18:51 | 49.98058 | 2.08740 | 35945 ft | 493 kts | 320° |
| 2026-05-04 18:52 | 50.03504 | 2.02233 | 35943 ft | 494 kts | 320° |
| 2026-05-04 18:52 | 50.08949 | 1.95707 | 35948 ft | 494 kts | 320° |
| 2026-05-04 18:53 | 50.14389 | 1.89169 | 35946 ft | 493 kts | 320° |
| 2026-05-04 18:53 | 50.19631 | 1.82267 | 35966 ft | 495 kts | 314° |
| 2026-05-04 18:54 | 50.24582 | 1.74656 | 35979 ft | 503 kts | 313° |
| 2026-05-04 18:54 | 50.29557 | 1.66960 | 35982 ft | 504 kts | 313° |
| 2026-05-04 18:55 | 50.34555 | 1.59289 | 35984 ft | 503 kts | 313° |
| 2026-05-04 18:55 | 50.42025 | 1.47827 | 35979 ft | 500 kts | 313° |
| 2026-05-04 18:56 | 50.46984 | 1.40187 | 35992 ft | 499 kts | 313° |
| 2026-05-04 18:56 | 50.51862 | 1.32454 | 35990 ft | 498 kts | 310° |
| 2026-05-04 18:57 | 50.56508 | 1.24372 | 35997 ft | 498 kts | 310° |
| 2026-05-04 18:57 | 50.61285 | 1.16477 | 35976 ft | 499 kts | 313° |
| 2026-05-04 18:58 | 50.66218 | 1.08799 | 36008 ft | 498 kts | 313° |
| 2026-05-04 18:58 | 50.71130 | 1.01093 | 36000 ft | 498 kts | 313° |
| 2026-05-04 18:59 | 50.76003 | 0.93332 | 36000 ft | 497 kts | 312° |
| 2026-05-04 18:59 | 50.80861 | 0.85561 | 35999 ft | 497 kts | 312° |
| 2026-05-04 19:00 | 50.85719 | 0.77774 | 36001 ft | 497 kts | 312° |
| 2026-05-04 19:00 | 50.90577 | 0.70016 | 36005 ft | 497 kts | 313° |
| 2026-05-04 19:01 | 50.95447 | 0.62236 | 36000 ft | 498 kts | 313° |
| 2026-05-04 19:01 | 51.00299 | 0.54393 | 35998 ft | 497 kts | 312° |
| 2026-05-04 19:02 | 51.05111 | 0.46506 | 36007 ft | 497 kts | 312° |
| 2026-05-04 19:02 | 51.09991 | 0.38694 | 35990 ft | 498 kts | 314° |
| 2026-05-04 19:03 | 51.15038 | 0.31127 | 35949 ft | 496 kts | 315° |
| 2026-05-04 19:03 | 51.17517 | 0.27408 | 35533 ft | 482 kts | 314° |
| 2026-05-04 19:03 | 51.19929 | 0.23751 | 34785 ft | 479 kts | 314° |
| 2026-05-04 19:04 | 51.22349 | 0.20049 | 33808 ft | 484 kts | 314° |
| 2026-05-04 19:04 | 51.24779 | 0.16315 | 32552 ft | 493 kts | 314° |
| 2026-05-04 19:04 | 51.27244 | 0.12528 | 32032 ft | 487 kts | 313° |
| 2026-05-04 19:04 | 51.29667 | 0.08799 | 31466 ft | 482 kts | 313° |
| 2026-05-04 19:05 | 51.32104 | 0.05193 | 30943 ft | 478 kts | 317° |
| 2026-05-04 19:05 | 51.34717 | 0.01938 | 30440 ft | 475 kts | 323° |
| 2026-05-04 19:05 | 51.37509 | -0.00860 | 29902 ft | 472 kts | 327° |
| 2026-05-04 19:05 | 51.40333 | -0.03489 | 29315 ft | 467 kts | 328° |
| 2026-05-04 19:06 | 51.43128 | -0.06084 | 28805 ft | 462 kts | 328° |
| 2026-05-04 19:06 | 51.45884 | -0.08663 | 28300 ft | 456 kts | 328° |
| 2026-05-04 19:06 | 51.48605 | -0.11234 | 27811 ft | 451 kts | 327° |
| 2026-05-04 19:06 | 51.51295 | -0.13793 | 27310 ft | 447 kts | 327° |
| 2026-05-04 19:07 | 51.53953 | -0.16333 | 26822 ft | 443 kts | 327° |
| 2026-05-04 19:07 | 51.56588 | -0.18857 | 26347 ft | 439 kts | 327° |
| 2026-05-04 19:07 | 51.59192 | -0.21355 | 25906 ft | 435 kts | 327° |
| 2026-05-04 19:07 | 51.61782 | -0.23839 | 25451 ft | 431 kts | 327° |
| 2026-05-04 19:08 | 51.64333 | -0.26290 | 24996 ft | 427 kts | 327° |
| 2026-05-04 19:08 | 51.66841 | -0.28705 | 24542 ft | 424 kts | 327° |
| 2026-05-04 19:08 | 51.69391 | -0.31148 | 24095 ft | 422 kts | 328° |
| 2026-05-04 19:08 | 51.71908 | -0.33553 | 23653 ft | 420 kts | 328° |
| 2026-05-04 19:09 | 51.74416 | -0.35956 | 23126 ft | 417 kts | 328° |
| 2026-05-04 19:09 | 51.76870 | -0.38310 | 22653 ft | 414 kts | 328° |
| 2026-05-04 19:09 | 51.78759 | -0.40126 | 22277 ft | 411 kts | 328° |
| 2026-05-04 19:09 | 51.81206 | -0.42481 | 21855 ft | 407 kts | 327° |
| 2026-05-04 19:10 | 51.83615 | -0.44811 | 21516 ft | 401 kts | 327° |
| 2026-05-04 19:10 | 51.85988 | -0.47118 | 21149 ft | 396 kts | 327° |
| 2026-05-04 19:10 | 51.88335 | -0.49406 | 20802 ft | 392 kts | 327° |
| 2026-05-04 19:10 | 51.90665 | -0.51681 | 20460 ft | 391 kts | 327° |
| 2026-05-04 19:11 | 51.93085 | -0.53812 | 19659 ft | 403 kts | 334° |
| 2026-05-04 19:11 | 51.95722 | -0.55380 | 19103 ft | 405 kts | 341° |
| 2026-05-04 19:11 | 51.98401 | -0.56786 | 18580 ft | 404 kts | 341° |
| 2026-05-04 19:11 | 52.01063 | -0.58193 | 18094 ft | 401 kts | 341° |
| 2026-05-04 19:12 | 52.03705 | -0.59601 | 17578 ft | 398 kts | 340° |
| 2026-05-04 19:12 | 52.08913 | -0.62405 | 16636 ft | 390 kts | 340° |
| 2026-05-04 19:12 | 52.11480 | -0.63798 | 16176 ft | 386 kts | 340° |
| 2026-05-04 19:13 | 52.14014 | -0.65176 | 15732 ft | 382 kts | 340° |
| 2026-05-04 19:13 | 52.16523 | -0.66540 | 15290 ft | 379 kts | 340° |
| 2026-05-04 19:13 | 52.19008 | -0.67896 | 14859 ft | 375 kts | 340° |
| 2026-05-04 19:13 | 52.21466 | -0.69244 | 14422 ft | 371 kts | 340° |
| 2026-05-04 19:14 | 52.23903 | -0.70577 | 13997 ft | 368 kts | 340° |
| 2026-05-04 19:14 | 52.26317 | -0.71902 | 13531 ft | 364 kts | 340° |
| 2026-05-04 19:14 | 52.28704 | -0.73211 | 13083 ft | 360 kts | 340° |
| 2026-05-04 19:14 | 52.31066 | -0.74511 | 12654 ft | 356 kts | 340° |
| 2026-05-04 19:15 | 52.33403 | -0.75793 | 12227 ft | 352 kts | 340° |
| 2026-05-04 19:15 | 52.35713 | -0.77062 | 11826 ft | 348 kts | 340° |
| 2026-05-04 19:15 | 52.37995 | -0.78317 | 11427 ft | 344 kts | 340° |
| 2026-05-04 19:15 | 52.40250 | -0.79561 | 11022 ft | 340 kts | 340° |
| 2026-05-04 19:16 | 52.42482 | -0.80794 | 10640 ft | 336 kts | 340° |
| 2026-05-04 19:16 | 52.44686 | -0.82014 | 10248 ft | 333 kts | 340° |
| 2026-05-04 19:16 | 52.46869 | -0.83222 | 9894 ft | 328 kts | 340° |
| 2026-05-04 19:16 | 52.48973 | -0.84386 | 9638 ft | 320 kts | 340° |
| 2026-05-04 19:17 | 52.50992 | -0.85499 | 9409 ft | 293 kts | 340° |
| 2026-05-04 19:17 | 52.52862 | -0.86534 | 8959 ft | 276 kts | 340° |
| 2026-05-04 19:17 | 52.54641 | -0.87525 | 8464 ft | 266 kts | 339° |
| 2026-05-04 19:17 | 52.56384 | -0.88497 | 8151 ft | 264 kts | 340° |
| 2026-05-04 19:18 | 52.58123 | -0.89465 | 7812 ft | 264 kts | 340° |
| 2026-05-04 19:18 | 52.59859 | -0.90434 | 7485 ft | 262 kts | 340° |
| 2026-05-04 19:18 | 52.61579 | -0.91393 | 7177 ft | 259 kts | 339° |
| 2026-05-04 19:18 | 52.63286 | -0.92344 | 6872 ft | 259 kts | 340° |
| 2026-05-04 19:19 | 52.64985 | -0.93292 | 6575 ft | 257 kts | 340° |
| 2026-05-04 19:19 | 52.66679 | -0.94238 | 6192 ft | 256 kts | 340° |
| 2026-05-04 19:19 | 52.68366 | -0.95182 | 5783 ft | 256 kts | 340° |
| 2026-05-04 19:19 | 52.70040 | -0.96120 | 5422 ft | 253 kts | 340° |
| 2026-05-04 19:20 | 52.71696 | -0.97047 | 5078 ft | 250 kts | 340° |
| 2026-05-04 19:20 | 52.73335 | -0.97966 | 4724 ft | 248 kts | 340° |
| 2026-05-04 19:20 | 52.74966 | -0.98882 | 4340 ft | 247 kts | 340° |
| 2026-05-04 19:20 | 52.76589 | -0.99791 | 3934 ft | 246 kts | 341° |
| 2026-05-04 19:21 | 52.78205 | -1.00702 | 3615 ft | 241 kts | 341° |
| 2026-05-04 19:21 | 52.79746 | -1.01565 | 3501 ft | 227 kts | 341° |
| 2026-05-04 19:21 | 52.81194 | -1.02395 | 3308 ft | 214 kts | 336° |
| 2026-05-04 19:21 | 52.82360 | -1.03734 | 3250 ft | 198 kts | 312° |
| 2026-05-04 19:22 | 52.83076 | -1.05586 | 3203 ft | 191 kts | 293° |
| 2026-05-04 19:22 | 52.83327 | -1.07727 | 3114 ft | 192 kts | 275° |
| 2026-05-04 19:22 | 52.83436 | -1.09958 | 2828 ft | 195 kts | 275° |
| 2026-05-04 19:22 | 52.83469 | -1.12183 | 2561 ft | 191 kts | 270° |
| 2026-05-04 19:23 | 52.83436 | -1.14351 | 2327 ft | 184 kts | 269° |
| 2026-05-04 19:23 | 52.83396 | -1.16433 | 2068 ft | 177 kts | 269° |
| 2026-05-04 19:23 | 52.83358 | -1.18428 | 1820 ft | 170 kts | 269° |
| 2026-05-04 19:23 | 52.83326 | -1.20295 | 1581 ft | 153 kts | 269° |
| 2026-05-04 19:24 | 52.83295 | -1.22033 | 1405 ft | 152 kts | 269° |
| 2026-05-04 19:24 | 52.83263 | -1.23794 | 1176 ft | 154 kts | 269° |
| 2026-05-04 19:24 | 52.83224 | -1.25587 | 949 ft | 158 kts | 268° |
| 2026-05-04 19:24 | 52.83197 | -1.27403 | 735 ft | 157 kts | 268° |
| 2026-05-04 19:25 | 52.83163 | -1.29207 | 520 ft | 157 kts | 268° |
| 2026-05-04 19:25 | 52.83132 | -1.31005 | 331 ft | 156 kts | 268° |
| 2026-05-04 19:25 | 52.83104 | -1.32636 | 309 ft | 116 kts | 268° |
| 2026-05-04 19:25 | 52.83086 | -1.33611 | 313 ft | 66 kts | 268° |
| 2026-05-04 19:26 | 52.83073 | -1.34365 | 307 ft | 49 kts | 269° |
| 2026-05-04 19:26 | 52.83059 | -1.34618 | 310 ft | 12 kts | 242° |
| 2026-05-04 19:26 | 52.82991 | -1.34666 | 308 ft | 11 kts | 178° |
| 2026-05-04 19:26 | 52.82952 | -1.34661 | 309 ft | 2 kts | 176° |
| 2026-05-04 19:27 | 52.82940 | -1.34659 | 307 ft | 2 kts | 176° |
| 2026-05-04 19:27 | 52.82919 | -1.34645 | 307 ft | 6 kts | 141° |
| 2026-05-04 19:27 | 52.82907 | -1.34548 | 308 ft | 9 kts | 93° |
| 2026-05-04 19:27 | 52.82902 | -1.34442 | 311 ft | 9 kts | 112° |
| 2026-05-04 19:28 | 52.82844 | -1.34448 | 308 ft | 12 kts | 233° |
| 2026-05-04 19:28 | 52.82831 | -1.34582 | 308 ft | 12 kts | 268° |
| 2026-05-04 19:28 | 52.82829 | -1.34715 | 305 ft | 11 kts | 268° |
| 2026-05-04 19:28 | 52.82827 | -1.34839 | 305 ft | 8 kts | 268° |
| 2026-05-04 19:29 | 52.82777 | -1.34869 | 308 ft | 9 kts | 176° |
| 2026-05-04 19:29 | 52.82748 | -1.34867 | 305 ft | 0 kts | 178° |
| 2026-05-04 19:29 | 52.82747 | -1.34867 | 305 ft | 0 kts | 178° |